createdAt,value
2018-04-12T00:00:27.288Z,12.90
2018-04-12T00:02:54.857Z,12.47
2018-04-12T00:05:22.460Z,13.40
2018-04-12T00:07:50.256Z,13.50
2018-04-12T00:10:17.824Z,13.63
2018-04-12T00:12:45.424Z,13.63
2018-04-12T00:15:13.024Z,13.57
2018-04-12T00:17:40.819Z,13.13
2018-04-12T00:20:08.424Z,13.13
2018-04-12T00:22:36.054Z,12.93
2018-04-12T00:25:03.689Z,13.77
2018-04-12T00:27:31.256Z,13.13
2018-04-12T00:29:59.218Z,14.47
2018-04-12T00:32:26.808Z,13.67
2018-04-12T00:34:54.533Z,14.03
2018-04-12T00:37:22.373Z,13.63
2018-04-12T00:39:49.937Z,13.70
2018-04-12T00:42:17.508Z,13.90
2018-04-12T00:44:45.077Z,14.00
2018-04-12T00:47:12.948Z,13.80
2018-04-12T00:49:40.509Z,13.37
2018-04-12T00:52:08.076Z,14.23
2018-04-12T00:54:35.789Z,14.60
2018-04-12T00:57:03.357Z,14.07
2018-04-12T00:59:31.101Z,13.60
2018-04-12T01:01:58.815Z,12.80
2018-04-12T01:04:26.390Z,14.13
2018-04-12T01:06:53.961Z,13.67
2018-04-12T01:09:21.587Z,13.83
2018-04-12T01:11:49.327Z,14.23
2018-04-12T01:14:16.903Z,13.17
2018-04-12T01:16:44.473Z,14.07
2018-04-12T01:19:12.060Z,12.83
2018-04-12T01:21:39.621Z,12.50
2018-04-12T01:24:07.185Z,12.80
2018-04-12T01:26:34.764Z,12.33
2018-04-12T01:29:02.324Z,12.10
2018-04-12T01:31:29.944Z,13.23
2018-04-12T01:33:57.509Z,14.23
2018-04-12T01:36:25.072Z,14.07
2018-04-12T01:38:52.716Z,14.00
2018-04-12T01:41:20.434Z,13.40
2018-04-12T01:43:48.004Z,14.53
2018-04-12T01:46:15.569Z,14.23
2018-04-12T01:48:43.136Z,13.07
2018-04-12T01:51:10.701Z,13.37
2018-04-12T01:53:38.329Z,13.70
2018-04-12T01:56:06.129Z,13.93
2018-04-12T01:58:33.733Z,14.83
2018-04-12T02:01:01.463Z,13.43
2018-04-12T02:03:29.201Z,14.20
2018-04-12T02:05:56.773Z,14.23
2018-04-12T02:08:24.355Z,13.93
2018-04-12T02:10:51.972Z,13.20
2018-04-12T02:13:19.675Z,14.53
2018-04-12T02:15:47.336Z,14.57
2018-04-12T02:18:15.113Z,13.57
2018-04-12T02:20:42.708Z,14.17
2018-04-12T02:23:10.414Z,14.53
2018-04-12T02:25:38.130Z,13.70
2018-04-12T02:28:05.700Z,14.90
2018-04-12T02:30:33.502Z,14.40
2018-04-12T02:33:01.085Z,14.93
2018-04-12T02:35:28.685Z,13.73
2018-04-12T02:37:56.332Z,14.10
2018-04-12T02:40:24.074Z,13.83
2018-04-12T02:42:51.633Z,14.23
2018-04-12T02:45:19.411Z,13.37
2018-04-12T02:47:47.229Z,14.97
2018-04-12T02:50:14.801Z,13.67
2018-04-12T02:52:42.537Z,15.07
2018-04-12T02:55:10.165Z,14.53
2018-04-12T02:57:37.902Z,14.67
2018-04-12T03:00:05.725Z,14.20
2018-04-12T03:02:33.312Z,14.80
2018-04-12T03:05:01.056Z,17.03
2018-04-12T03:07:28.632Z,14.37
2018-04-12T03:09:56.196Z,15.60
2018-04-12T03:12:23.764Z,15.03
2018-04-12T03:14:51.320Z,14.93
2018-04-12T03:17:18.942Z,14.63
2018-04-12T03:19:46.663Z,14.33
2018-04-12T03:22:14.241Z,15.13
2018-04-12T03:24:41.823Z,14.70
2018-04-12T03:27:09.420Z,14.50
2018-04-12T03:29:37.025Z,14.33
2018-04-12T03:32:04.703Z,13.87
2018-04-12T03:34:32.272Z,15.27
2018-04-12T03:36:59.832Z,13.90
2018-04-12T03:39:27.448Z,14.70
2018-04-12T03:41:55.191Z,15.07
2018-04-12T03:44:22.820Z,14.63
2018-04-12T03:46:50.560Z,15.17
2018-04-12T03:49:18.161Z,15.43
2018-04-12T03:51:45.897Z,15.20
2018-04-12T03:54:13.496Z,15.00
2018-04-12T03:56:41.068Z,15.07
2018-04-12T03:59:08.644Z,14.60
2018-04-12T04:01:36.469Z,14.47
2018-04-12T04:04:04.028Z,15.17
2018-04-12T04:06:31.595Z,14.50
2018-04-12T04:08:59.165Z,16.03
2018-04-12T04:11:26.729Z,15.37
2018-04-12T04:13:54.558Z,16.17
2018-04-12T04:16:34.118Z,16.23
2018-04-12T04:19:13.492Z,15.90
2018-04-12T04:21:41.300Z,15.23
2018-04-12T04:24:08.876Z,16.10
2018-04-12T04:26:36.437Z,16.63
2018-04-12T04:29:04.068Z,15.47
2018-04-12T04:31:31.641Z,15.97
2018-04-12T04:33:59.206Z,16.03
2018-04-12T04:36:26.777Z,15.57
2018-04-12T04:38:54.496Z,15.33
2018-04-12T04:41:22.072Z,15.00
2018-04-12T04:43:49.642Z,14.27
2018-04-12T04:46:17.224Z,14.67
2018-04-12T04:48:44.789Z,14.80
2018-04-12T04:51:12.408Z,13.10
2018-04-12T04:53:39.969Z,13.30
2018-04-12T04:56:07.545Z,13.57
2018-04-12T04:58:35.112Z,12.87
2018-04-12T05:01:02.883Z,10.73
2018-04-12T05:03:30.493Z,11.50
2018-04-12T05:05:58.083Z,10.17
2018-04-12T05:08:25.940Z,10.43
2018-04-12T05:10:53.512Z,10.40
2018-04-12T05:13:21.136Z,10.33
2018-04-12T05:15:48.870Z,11.70
2018-04-12T05:18:16.434Z,11.00
2018-04-12T05:20:44.226Z,10.90
2018-04-12T05:23:11.843Z,11.10
2018-04-12T05:25:39.456Z,11.30
2018-04-12T05:28:07.057Z,11.00
2018-04-12T05:30:34.689Z,11.40
2018-04-12T05:33:02.252Z,10.40
2018-04-12T05:35:29.876Z,11.27
2018-04-12T05:37:57.447Z,10.43
2018-04-12T05:40:25.166Z,10.70
2018-04-12T05:42:52.748Z,11.17
2018-04-12T05:45:20.401Z,11.97
2018-04-12T05:47:48.224Z,11.57
2018-04-12T05:50:15.834Z,13.50
2018-04-12T05:52:43.408Z,12.30
2018-04-12T05:55:11.172Z,12.03
2018-04-12T05:57:38.796Z,11.70
2018-04-12T06:00:06.401Z,11.60
2018-04-12T06:02:34.094Z,8.27
2018-04-12T06:05:01.839Z,9.23
2018-04-12T06:07:29.569Z,10.50
2018-04-12T06:09:57.112Z,8.97
2018-04-12T06:12:24.664Z,8.53
2018-04-12T06:14:52.424Z,8.63
2018-04-12T06:17:19.980Z,8.53
2018-04-12T06:19:47.555Z,8.17
2018-04-12T06:22:15.128Z,8.60
2018-04-12T06:24:42.688Z,8.43
2018-04-12T06:27:10.255Z,7.17
2018-04-12T06:29:37.836Z,8.67
2018-04-12T06:32:05.435Z,7.20
2018-04-12T06:34:32.992Z,8.10
2018-04-12T06:37:00.600Z,8.37
2018-04-12T06:39:28.172Z,8.27
2018-04-12T06:41:55.728Z,7.83
2018-04-12T06:44:23.300Z,8.30
2018-04-12T06:46:51.025Z,9.03
2018-04-12T06:49:18.588Z,8.13
2018-04-12T06:51:46.168Z,6.90
2018-04-12T06:54:13.776Z,6.87
2018-04-12T06:56:41.526Z,7.90
2018-04-12T06:59:09.344Z,8.27
2018-04-12T07:01:37.127Z,7.80
2018-04-12T07:04:04.703Z,6.80
2018-04-12T07:06:32.498Z,7.07
2018-04-12T07:09:00.051Z,6.73
2018-04-12T07:11:27.696Z,6.60
2018-04-12T07:13:55.254Z,7.70
2018-04-12T07:16:22.808Z,8.13
2018-04-12T07:18:50.376Z,7.90
2018-04-12T07:21:18.105Z,7.27
2018-04-12T07:23:45.678Z,7.73
2018-04-12T07:26:13.241Z,8.17
2018-04-12T07:28:40.877Z,7.90
2018-04-12T07:31:08.678Z,8.40
2018-04-12T07:33:36.254Z,7.87
2018-04-12T07:36:03.852Z,7.10
2018-04-12T07:38:31.417Z,8.27
2018-04-12T07:40:59.250Z,7.53
2018-04-12T07:43:27.068Z,10.80
2018-04-12T07:45:54.632Z,9.13
2018-04-12T07:48:22.231Z,8.43
2018-04-12T07:50:49.863Z,9.77
2018-04-12T07:53:17.643Z,8.90
2018-04-12T07:55:45.224Z,10.17
2018-04-12T07:58:12.863Z,8.83
2018-04-12T08:00:40.457Z,8.30
2018-04-12T08:03:08.220Z,9.17
2018-04-12T08:05:35.810Z,8.03
2018-04-12T08:08:03.454Z,7.80
2018-04-12T08:10:30.996Z,8.30
2018-04-12T08:12:58.784Z,7.27
2018-04-12T08:15:26.415Z,8.27
2018-04-12T08:17:53.973Z,8.30
2018-04-12T08:20:21.597Z,7.17
2018-04-12T08:22:49.153Z,7.93
2018-04-12T08:25:16.975Z,8.27
2018-04-12T08:27:44.540Z,8.13
2018-04-12T08:30:12.311Z,8.50
2018-04-12T08:32:39.873Z,8.20
2018-04-12T08:35:07.496Z,8.10
2018-04-12T08:37:35.101Z,8.30
2018-04-12T08:40:02.712Z,7.73
2018-04-12T08:42:30.286Z,7.97
2018-04-12T08:44:57.843Z,7.53
2018-04-12T08:47:25.639Z,7.80
2018-04-12T08:49:53.231Z,8.07
2018-04-12T08:52:20.814Z,8.50
2018-04-12T08:54:48.593Z,8.07
2018-04-12T08:57:16.528Z,9.13
2018-04-12T08:59:44.084Z,7.90
2018-04-12T09:02:11.846Z,8.27
2018-04-12T09:04:39.475Z,8.03
2018-04-12T09:07:07.284Z,8.30
2018-04-12T09:09:34.894Z,8.43
2018-04-12T09:12:02.446Z,7.90
2018-04-12T09:14:30.238Z,7.90
2018-04-12T09:16:57.800Z,6.93
2018-04-12T09:19:25.424Z,8.43
2018-04-12T09:21:52.985Z,7.40
2018-04-12T09:24:20.545Z,7.47
2018-04-12T09:26:48.114Z,7.57
2018-04-12T09:29:15.673Z,7.67
2018-04-12T09:31:43.249Z,7.43
2018-04-12T09:34:10.821Z,7.23
2018-04-12T09:36:38.603Z,7.53
2018-04-12T09:39:06.251Z,6.20
2018-04-12T09:41:34.041Z,6.37
2018-04-12T09:44:01.855Z,6.40
2018-04-12T09:46:29.460Z,7.33
2018-04-12T09:48:57.192Z,7.13
2018-04-12T09:51:24.785Z,7.43
2018-04-12T09:53:52.369Z,6.80
2018-04-12T09:56:19.934Z,7.57
2018-04-12T09:58:47.549Z,7.30
2018-04-12T10:01:15.903Z,6.90
2018-04-12T10:03:44.404Z,7.27
2018-04-12T10:06:17.589Z,7.10
2018-04-12T10:11:44.061Z,7.50
2018-04-12T10:14:11.620Z,7.20
2018-04-12T10:16:39.434Z,7.43
2018-04-12T10:19:07.249Z,7.03
2018-04-12T10:21:35.070Z,6.43
2018-04-12T10:24:02.633Z,6.83
2018-04-12T10:26:30.205Z,7.07
2018-04-12T10:28:58.015Z,6.67
2018-04-12T10:31:25.839Z,7.10
2018-04-12T10:33:53.653Z,6.97
2018-04-12T10:36:21.339Z,6.60
2018-04-12T10:38:49.220Z,6.70
2018-04-12T10:41:16.955Z,6.97
2018-04-12T10:43:44.607Z,6.60
2018-04-12T10:46:12.208Z,6.27
2018-04-12T10:48:39.747Z,7.03
2018-04-12T10:51:07.361Z,7.27
2018-04-12T10:53:35.197Z,7.20
2018-04-12T10:56:02.781Z,7.60
2018-04-12T10:58:30.861Z,7.90
2018-04-12T11:00:58.443Z,6.93
2018-04-12T11:03:26.058Z,6.77
2018-04-12T11:05:53.730Z,6.63
2018-04-12T11:08:21.316Z,7.20
2018-04-12T11:10:48.890Z,7.33
2018-04-12T11:13:16.553Z,6.83
2018-04-12T11:15:44.112Z,6.67
2018-04-12T11:18:11.877Z,6.57
2018-04-12T11:20:39.696Z,5.93
2018-04-12T11:23:07.312Z,6.50
2018-04-12T11:25:34.885Z,6.67
2018-04-12T11:28:02.650Z,6.80
2018-04-12T11:30:30.469Z,7.87
2018-04-12T11:32:58.051Z,6.37
2018-04-12T11:35:25.933Z,6.57
2018-04-12T11:37:53.488Z,5.87
2018-04-12T11:40:21.123Z,6.33
2018-04-12T11:42:48.759Z,6.23
2018-04-12T11:45:16.392Z,6.70
2018-04-12T11:47:44.078Z,6.00
2018-04-12T11:50:11.673Z,6.13
2018-04-12T11:52:39.402Z,6.70
2018-04-12T11:55:06.966Z,7.07
2018-04-12T11:57:34.525Z,6.83
2018-04-12T12:00:02.091Z,7.20
2018-04-12T12:02:29.910Z,7.03
2018-04-12T12:04:57.473Z,6.40
2018-04-12T12:07:25.037Z,6.27
2018-04-12T12:09:52.604Z,6.60
2018-04-12T12:12:20.381Z,6.20
2018-04-12T12:14:47.965Z,6.67
2018-04-12T12:17:15.675Z,6.30
2018-04-12T12:19:43.236Z,5.70
2018-04-12T12:22:11.048Z,5.67
2018-04-12T12:24:38.665Z,5.90
2018-04-12T12:27:06.220Z,5.20
2018-04-12T12:29:33.788Z,5.33
2018-04-12T12:32:01.506Z,5.77
2018-04-12T12:34:29.217Z,5.43
2018-04-12T12:36:56.802Z,6.67
2018-04-12T12:39:24.361Z,5.63
2018-04-12T12:41:51.935Z,5.27
2018-04-12T12:44:19.485Z,5.60
2018-04-12T12:46:47.092Z,4.60
2018-04-12T12:49:14.653Z,5.43
2018-04-12T12:51:42.216Z,4.80
2018-04-12T12:54:09.797Z,5.33
2018-04-12T12:56:37.367Z,5.17
2018-04-12T12:59:05.090Z,4.80
2018-04-12T13:01:32.663Z,5.20
2018-04-12T13:04:00.228Z,5.07
2018-04-12T13:06:27.783Z,4.50
2018-04-12T13:08:55.593Z,4.37
2018-04-12T13:11:23.149Z,5.43
2018-04-12T13:13:50.709Z,4.30
2018-04-12T13:16:18.291Z,3.90
2018-04-12T13:18:45.853Z,5.23
2018-04-12T13:21:13.421Z,4.57
2018-04-12T13:23:41.199Z,4.50
2018-04-12T13:26:08.805Z,4.77
2018-04-12T13:28:36.358Z,4.73
2018-04-12T13:31:04.011Z,4.70
2018-04-12T13:33:31.570Z,4.60
2018-04-12T13:35:59.113Z,4.93
2018-04-12T13:38:26.908Z,4.80
2018-04-12T13:40:54.469Z,5.07
2018-04-12T13:43:22.046Z,5.20
2018-04-12T13:45:49.650Z,4.73
2018-04-12T13:48:17.477Z,5.40
2018-04-12T13:50:45.198Z,5.30
2018-04-12T13:53:12.854Z,5.60
2018-04-12T13:55:40.554Z,5.57
2018-04-12T13:58:08.116Z,6.03
2018-04-12T14:00:35.694Z,4.63
2018-04-12T14:03:03.371Z,5.30
2018-04-12T14:05:30.936Z,5.10
2018-04-12T14:07:58.517Z,5.43
2018-04-12T14:10:26.284Z,6.10
2018-04-12T14:12:54.060Z,5.30
2018-04-12T14:15:21.625Z,6.13
2018-04-12T14:17:49.201Z,5.50
2018-04-12T14:20:16.876Z,5.53
2018-04-12T14:22:44.436Z,5.13
2018-04-12T14:25:11.993Z,5.43
2018-04-12T14:27:39.763Z,5.90
2018-04-12T14:30:07.581Z,4.90
2018-04-12T14:32:35.130Z,5.30
2018-04-12T14:35:02.917Z,5.30
2018-04-12T14:37:30.489Z,5.37
2018-04-12T14:39:58.117Z,5.53
2018-04-12T14:42:25.875Z,5.20
2018-04-12T14:44:53.693Z,5.13
2018-04-12T14:47:21.459Z,5.27
2018-04-12T14:49:49.005Z,5.37
2018-04-12T14:52:16.581Z,4.87
2018-04-12T14:54:44.154Z,5.23
2018-04-12T14:57:11.726Z,4.67
2018-04-12T14:59:39.288Z,5.97
2018-04-12T15:02:06.956Z,5.30
2018-04-12T15:04:34.667Z,5.10
2018-04-12T15:07:02.264Z,5.07
2018-04-12T15:09:30.508Z,5.33
2018-04-12T15:11:58.078Z,5.43
2018-04-12T15:14:25.657Z,5.47
2018-04-12T15:16:53.336Z,5.73
2018-04-12T15:19:21.148Z,5.77
2018-04-12T15:21:48.963Z,4.97
2018-04-12T15:24:16.584Z,5.50
2018-04-12T15:26:44.142Z,6.00
2018-04-12T15:29:11.796Z,5.40
2018-04-12T15:31:39.379Z,4.83
2018-04-12T15:34:07.138Z,5.50
2018-04-12T15:36:34.712Z,5.17
2018-04-12T15:39:02.273Z,5.90
2018-04-12T15:41:29.848Z,5.33
2018-04-12T15:43:57.401Z,7.57
2018-04-12T15:46:25.025Z,5.20
2018-04-12T15:48:52.739Z,4.97
2018-04-12T15:51:20.494Z,4.90
2018-04-12T15:53:48.080Z,6.23
2018-04-12T15:56:15.791Z,5.07
2018-04-12T15:58:43.384Z,5.77
2018-04-12T16:01:11.152Z,5.57
2018-04-12T16:03:38.759Z,5.50
2018-04-12T16:06:06.489Z,9.37
2018-04-12T16:08:34.116Z,6.83
2018-04-12T16:11:01.701Z,6.27
2018-04-12T16:13:29.268Z,5.93
2018-04-12T16:15:57.060Z,5.67
2018-04-12T16:18:24.617Z,5.67
2018-04-12T16:20:52.296Z,5.53
2018-04-12T16:23:19.860Z,5.87
2018-04-12T16:25:47.449Z,5.57
2018-04-12T16:28:15.250Z,4.97
2018-04-12T16:30:42.995Z,6.07
2018-04-12T16:33:10.700Z,5.97
2018-04-12T16:35:38.266Z,5.90
2018-04-12T16:38:05.874Z,5.93
2018-04-12T16:40:33.432Z,6.80
2018-04-12T16:43:01.160Z,5.93
2018-04-12T16:45:28.882Z,5.80
2018-04-12T16:47:56.486Z,6.37
2018-04-12T16:50:24.081Z,6.20
2018-04-12T16:52:51.932Z,5.93
2018-04-12T16:55:19.503Z,5.67
2018-04-12T16:57:47.065Z,6.17
2018-04-12T17:00:14.887Z,6.73
2018-04-12T17:02:42.449Z,5.67
2018-04-12T17:05:10.226Z,6.30
2018-04-12T17:07:38.042Z,5.63
2018-04-12T17:10:05.861Z,5.90
2018-04-12T17:12:33.412Z,6.27
2018-04-12T17:15:01.198Z,6.47
2018-04-12T17:17:28.809Z,6.07
2018-04-12T17:19:56.419Z,6.43
2018-04-12T17:22:24.000Z,5.97
2018-04-12T17:24:51.564Z,6.30
2018-04-12T17:27:19.387Z,6.70
2018-04-12T17:29:46.991Z,7.33
2018-04-12T17:32:14.556Z,6.73
2018-04-12T17:34:42.342Z,8.13
2018-04-12T17:37:10.160Z,7.57
2018-04-12T17:39:37.979Z,7.53
2018-04-12T17:42:05.671Z,7.70
2018-04-12T17:44:33.310Z,8.23
2018-04-12T17:47:00.880Z,7.83
2018-04-12T17:49:28.519Z,7.57
2018-04-12T17:51:56.242Z,9.17
2018-04-12T17:54:23.840Z,9.87
2018-04-12T17:56:51.396Z,8.90
2018-04-12T17:59:18.952Z,8.13
2018-04-12T18:01:46.521Z,8.60
2018-04-12T18:04:14.222Z,7.60
2018-04-12T18:06:41.793Z,9.07
2018-04-12T18:09:09.350Z,7.53
2018-04-12T18:11:37.198Z,8.60
2018-04-12T18:14:04.766Z,9.23
2018-04-12T18:16:32.324Z,8.80
2018-04-12T18:18:59.892Z,8.33
2018-04-12T18:21:27.685Z,8.60
2018-04-12T18:23:55.295Z,10.57
2018-04-12T18:26:23.064Z,16.13
2018-04-12T18:28:50.632Z,19.20
2018-04-12T18:31:18.196Z,15.57
2018-04-12T18:33:45.821Z,11.23
2018-04-12T18:36:13.570Z,14.60
2018-04-12T18:38:41.133Z,14.13
2018-04-12T18:41:08.931Z,13.47
2018-04-12T18:43:36.539Z,11.97
2018-04-12T18:46:04.366Z,13.00
2018-04-12T18:48:31.924Z,12.03
2018-04-12T18:50:59.703Z,12.60
2018-04-12T18:53:27.277Z,11.67
2018-04-12T18:55:54.840Z,12.30
2018-04-12T18:58:22.417Z,13.10
2018-04-12T19:00:50.001Z,13.70
2018-04-12T19:03:17.682Z,12.87
2018-04-12T19:05:45.244Z,12.23
2018-04-12T19:08:13.029Z,13.00
2018-04-12T19:10:40.588Z,13.03
2018-04-12T19:13:08.181Z,13.10
2018-04-12T19:15:35.767Z,12.80
2018-04-12T19:18:03.336Z,13.00
2018-04-12T19:20:30.937Z,13.67
2018-04-12T19:22:58.520Z,13.47
2018-04-12T19:25:26.101Z,13.17
2018-04-12T19:27:53.665Z,13.10
2018-04-12T19:30:21.237Z,13.40
2018-04-12T19:32:48.982Z,12.80
2018-04-12T19:35:16.831Z,12.43
2018-04-12T19:37:44.397Z,11.63
2018-04-12T19:40:12.130Z,11.77
2018-04-12T19:42:39.700Z,12.43
2018-04-12T19:45:07.398Z,12.20
2018-04-12T19:47:35.219Z,11.70
2018-04-12T19:50:02.784Z,13.87
2018-04-12T19:52:30.360Z,13.60
2018-04-12T19:54:58.171Z,13.27
2018-04-12T19:57:25.788Z,13.27
2018-04-12T19:59:53.391Z,14.47
2018-04-12T20:02:21.125Z,14.70
2018-04-12T20:04:48.700Z,13.10
2018-04-12T20:07:16.476Z,13.43
2018-04-12T20:09:44.192Z,12.97
2018-04-12T20:12:11.782Z,13.30
2018-04-12T20:14:39.397Z,13.20
2018-04-12T20:17:06.977Z,12.43
2018-04-12T20:19:34.601Z,12.73
2018-04-12T20:22:02.169Z,12.40
2018-04-12T20:24:29.758Z,13.33
2018-04-12T20:26:57.332Z,11.53
2018-04-12T20:29:24.903Z,12.77
2018-04-12T20:31:52.481Z,11.70
2018-04-12T20:34:20.050Z,11.57
2018-04-12T20:36:47.842Z,11.40
2018-04-12T20:39:15.405Z,10.87
2018-04-12T20:41:43.156Z,12.03
2018-04-12T20:44:10.717Z,11.10
2018-04-12T20:46:38.286Z,11.23
2018-04-12T20:49:05.870Z,11.53
2018-04-12T20:51:33.445Z,12.43
2018-04-12T20:54:01.112Z,11.80
2018-04-12T20:56:28.686Z,11.60
2018-04-12T20:58:56.244Z,11.73
2018-04-12T21:01:23.849Z,11.50
2018-04-12T21:03:51.417Z,11.43
2018-04-12T21:06:19.060Z,12.60
2018-04-12T21:08:46.620Z,11.83
2018-04-12T21:11:14.185Z,10.97
2018-04-12T21:13:41.919Z,12.27
2018-04-12T21:16:09.505Z,11.87
2018-04-12T21:18:37.286Z,11.93
2018-04-12T21:21:05.099Z,11.77
2018-04-12T21:23:32.919Z,12.20
2018-04-12T21:26:00.737Z,11.93
2018-04-12T21:28:28.332Z,12.10
2018-04-12T21:30:55.918Z,11.50
2018-04-12T21:33:23.653Z,11.50
2018-04-12T21:35:51.222Z,11.77
2018-04-12T21:38:19.028Z,11.40
2018-04-12T21:40:46.780Z,11.63
2018-04-12T21:43:14.565Z,11.03
2018-04-12T21:45:42.298Z,11.30
2018-04-12T21:48:09.888Z,11.20
2018-04-12T21:50:37.622Z,10.43
2018-04-12T21:53:05.438Z,10.53
2018-04-12T21:55:32.997Z,9.80
2018-04-12T21:58:00.617Z,10.13
2018-04-12T22:00:28.204Z,10.60
2018-04-12T22:02:55.816Z,9.50
2018-04-12T22:05:23.632Z,9.43
2018-04-12T22:07:51.448Z,10.23
2018-04-12T22:10:19.089Z,9.73
2018-04-12T22:12:46.720Z,10.23
2018-04-12T22:15:14.404Z,10.03
2018-04-12T22:17:42.081Z,8.87
2018-04-12T22:20:09.690Z,9.37
2018-04-12T22:22:37.317Z,10.20
2018-04-12T22:25:04.985Z,9.80
2018-04-12T22:27:32.632Z,9.93
2018-04-12T22:30:00.233Z,9.00
2018-04-12T22:32:28.127Z,9.53
2018-04-12T22:34:55.743Z,9.50
2018-04-12T22:37:23.359Z,9.00
2018-04-12T22:39:50.994Z,9.77
2018-04-12T22:42:18.616Z,9.00
2018-04-12T22:44:46.248Z,8.93
2018-04-12T22:47:14.037Z,8.77
2018-04-12T22:49:41.901Z,9.50
2018-04-12T22:52:09.675Z,8.10
2018-04-12T22:54:37.309Z,9.73
2018-04-12T22:57:04.946Z,8.23
2018-04-12T22:59:32.729Z,8.33
2018-04-12T23:02:00.534Z,7.97
2018-04-12T23:04:28.189Z,6.63
2018-04-12T23:06:55.975Z,6.97
2018-04-12T23:09:23.596Z,6.47
2018-04-12T23:11:51.423Z,6.73
2018-04-12T23:14:19.241Z,7.40
2018-04-12T23:16:46.869Z,6.67
2018-04-12T23:19:14.676Z,6.53
2018-04-12T23:21:42.496Z,6.30
2018-04-12T23:24:10.413Z,5.90
2018-04-12T23:26:38.201Z,6.03
2018-04-12T23:29:05.816Z,6.27
2018-04-12T23:31:33.668Z,6.17
2018-04-12T23:34:01.284Z,5.80
2018-04-12T23:36:28.995Z,6.57
2018-04-12T23:38:56.612Z,5.97
2018-04-12T23:41:24.302Z,6.03
2018-04-12T23:43:51.924Z,6.60
2018-04-12T23:46:19.657Z,6.50
2018-04-12T23:48:47.324Z,6.13
2018-04-12T23:51:15.115Z,6.07
2018-04-12T23:53:42.736Z,6.33
2018-04-12T23:56:10.345Z,5.90
2018-04-12T23:58:38.032Z,6.40
